sensor_id;sensor_type;location;lat;lon;timestamp;P1;durP1;ratioP1;P2;durP2;ratioP2
76861;SDS011;65832;42.802;23.338;2022-12-07T00:04:03;20.83;;;8.70;;
76861;SDS011;65832;42.802;23.338;2022-12-07T00:06:34;24.73;;;10.82;;
76861;SDS011;65832;42.802;23.338;2022-12-07T00:09:03;19.85;;;9.90;;
76861;SDS011;65832;42.802;23.338;2022-12-07T00:11:29;19.13;;;9.52;;
76861;SDS011;65832;42.802;23.338;2022-12-07T00:13:56;20.10;;;9.13;;
76861;SDS011;65832;42.802;23.338;2022-12-07T00:16:25;17.05;;;9.13;;
76861;SDS011;65832;42.802;23.338;2022-12-07T00:18:52;21.70;;;10.25;;
76861;SDS011;65832;42.802;23.338;2022-12-07T00:21:19;24.17;;;10.57;;
76861;SDS011;65832;42.802;23.338;2022-12-07T00:23:47;22.80;;;10.95;;
76861;SDS011;65832;42.802;23.338;2022-12-07T00:26:14;29.73;;;13.45;;
76861;SDS011;65832;42.802;23.338;2022-12-07T00:28:45;39.65;;;17.17;;
76861;SDS011;65832;42.802;23.338;2022-12-07T00:31:12;32.95;;;17.38;;
76861;SDS011;65832;42.802;23.338;2022-12-07T00:33:38;48.20;;;24.95;;
76861;SDS011;65832;42.802;23.338;2022-12-07T00:36:05;46.03;;;25.60;;
76861;SDS011;65832;42.802;23.338;2022-12-07T00:38:33;44.75;;;25.10;;
76861;SDS011;65832;42.802;23.338;2022-12-07T00:41:03;44.22;;;19.92;;
76861;SDS011;65832;42.802;23.338;2022-12-07T00:46:00;30.83;;;15.63;;
76861;SDS011;65832;42.802;23.338;2022-12-07T00:48:25;45.75;;;20.13;;
76861;SDS011;65832;42.802;23.338;2022-12-07T00:50:51;37.90;;;17.77;;
76861;SDS011;65832;42.802;23.338;2022-12-07T00:53:17;31.67;;;16.40;;
76861;SDS011;65832;42.802;23.338;2022-12-07T00:55:43;38.63;;;17.75;;
76861;SDS011;65832;42.802;23.338;2022-12-07T00:58:09;33.13;;;16.38;;
76861;SDS011;65832;42.802;23.338;2022-12-07T01:00:35;28.10;;;14.90;;
76861;SDS011;65832;42.802;23.338;2022-12-07T01:03:06;26.75;;;12.23;;
76861;SDS011;65832;42.802;23.338;2022-12-07T01:05:33;24.20;;;10.90;;
76861;SDS011;65832;42.802;23.338;2022-12-07T01:07:59;48.33;;;18.38;;
76861;SDS011;65832;42.802;23.338;2022-12-07T01:10:25;55.25;;;18.35;;
76861;SDS011;65832;42.802;23.338;2022-12-07T01:12:50;34.60;;;12.68;;
76861;SDS011;65832;42.802;23.338;2022-12-07T01:15:16;31.60;;;11.95;;
76861;SDS011;65832;42.802;23.338;2022-12-07T01:17:41;21.38;;;9.70;;
76861;SDS011;65832;42.802;23.338;2022-12-07T01:20:07;23.15;;;10.20;;
76861;SDS011;65832;42.802;23.338;2022-12-07T01:24:53;21.02;;;10.00;;
76861;SDS011;65832;42.802;23.338;2022-12-07T01:27:19;22.15;;;10.43;;
76861;SDS011;65832;42.802;23.338;2022-12-07T01:29:45;22.65;;;10.52;;
76861;SDS011;65832;42.802;23.338;2022-12-07T01:32:10;22.48;;;11.23;;
76861;SDS011;65832;42.802;23.338;2022-12-07T01:34:36;24.88;;;10.80;;
76861;SDS011;65832;42.802;23.338;2022-12-07T01:37:02;21.50;;;10.23;;
76861;SDS011;65832;42.802;23.338;2022-12-07T01:39:28;27.63;;;11.82;;
76861;SDS011;65832;42.802;23.338;2022-12-07T01:41:54;37.33;;;13.05;;
76861;SDS011;65832;42.802;23.338;2022-12-07T01:44:24;29.00;;;11.88;;
76861;SDS011;65832;42.802;23.338;2022-12-07T01:54:55;19.98;;;9.45;;
76861;SDS011;65832;42.802;23.338;2022-12-07T01:57:24;26.23;;;10.57;;
76861;SDS011;65832;42.802;23.338;2022-12-07T01:59:50;23.45;;;11.25;;
76861;SDS011;65832;42.802;23.338;2022-12-07T02:02:43;24.83;;;11.45;;
76861;SDS011;65832;42.802;23.338;2022-12-07T02:05:29;24.52;;;11.90;;
76861;SDS011;65832;42.802;23.338;2022-12-07T02:07:55;29.73;;;13.75;;
76861;SDS011;65832;42.802;23.338;2022-12-07T02:10:26;32.45;;;15.82;;
76861;SDS011;65832;42.802;23.338;2022-12-07T02:14:35;26.90;;;13.10;;
76861;SDS011;65832;42.802;23.338;2022-12-07T02:24:54;27.50;;;11.80;;
76861;SDS011;65832;42.802;23.338;2022-12-07T02:30:21;23.00;;;10.80;;
76861;SDS011;65832;42.802;23.338;2022-12-07T02:35:26;24.27;;;10.98;;
76861;SDS011;65832;42.802;23.338;2022-12-07T02:38:03;29.67;;;10.98;;
76861;SDS011;65832;42.802;23.338;2022-12-07T02:40:48;23.92;;;11.10;;
76861;SDS011;65832;42.802;23.338;2022-12-07T02:43:21;21.95;;;9.82;;
76861;SDS011;65832;42.802;23.338;2022-12-07T02:45:51;23.33;;;10.13;;
76861;SDS011;65832;42.802;23.338;2022-12-07T02:48:19;21.15;;;9.15;;
76861;SDS011;65832;42.802;23.338;2022-12-07T02:50:49;20.50;;;9.27;;
76861;SDS011;65832;42.802;23.338;2022-12-07T02:53:38;21.35;;;8.73;;
76861;SDS011;65832;42.802;23.338;2022-12-07T03:03:44;26.33;;;9.55;;
76861;SDS011;65832;42.802;23.338;2022-12-07T03:06:16;17.67;;;8.65;;
76861;SDS011;65832;42.802;23.338;2022-12-07T03:08:49;23.55;;;10.43;;
76861;SDS011;65832;42.802;23.338;2022-12-07T03:11:17;25.92;;;10.50;;
76861;SDS011;65832;42.802;23.338;2022-12-07T03:14:02;21.42;;;8.90;;
76861;SDS011;65832;42.802;23.338;2022-12-07T03:16:40;21.05;;;9.35;;
76861;SDS011;65832;42.802;23.338;2022-12-07T03:19:12;22.35;;;9.48;;
76861;SDS011;65832;42.802;23.338;2022-12-07T03:24:19;23.17;;;9.45;;
76861;SDS011;65832;42.802;23.338;2022-12-07T03:26:55;21.70;;;8.80;;
76861;SDS011;65832;42.802;23.338;2022-12-07T03:29:28;22.63;;;9.32;;
76861;SDS011;65832;42.802;23.338;2022-12-07T03:32:05;19.13;;;9.00;;
76861;SDS011;65832;42.802;23.338;2022-12-07T03:34:40;20.77;;;9.27;;
76861;SDS011;65832;42.802;23.338;2022-12-07T03:37:23;19.50;;;9.32;;
76861;SDS011;65832;42.802;23.338;2022-12-07T03:40:40;17.05;;;9.18;;
76861;SDS011;65832;42.802;23.338;2022-12-07T03:42:39;18.17;;;8.68;;
76861;SDS011;65832;42.802;23.338;2022-12-07T03:45:05;19.08;;;8.50;;
76861;SDS011;65832;42.802;23.338;2022-12-07T03:47:38;23.88;;;8.45;;
76861;SDS011;65832;42.802;23.338;2022-12-07T03:53:17;18.50;;;7.72;;
76861;SDS011;65832;42.802;23.338;2022-12-07T03:55:45;15.27;;;7.32;;
76861;SDS011;65832;42.802;23.338;2022-12-07T03:58:16;16.10;;;7.80;;
76861;SDS011;65832;42.802;23.338;2022-12-07T04:00:44;19.20;;;9.55;;
76861;SDS011;65832;42.802;23.338;2022-12-07T04:03:10;16.63;;;8.63;;
76861;SDS011;65832;42.802;23.338;2022-12-07T04:05:35;14.35;;;6.85;;
76861;SDS011;65832;42.802;23.338;2022-12-07T04:08:01;19.23;;;8.68;;
76861;SDS011;65832;42.802;23.338;2022-12-07T04:10:27;18.27;;;8.90;;
76861;SDS011;65832;42.802;23.338;2022-12-07T04:12:52;27.23;;;13.25;;
76861;SDS011;65832;42.802;23.338;2022-12-07T04:15:18;26.13;;;11.75;;
76861;SDS011;65832;42.802;23.338;2022-12-07T04:17:43;26.35;;;13.38;;
76861;SDS011;65832;42.802;23.338;2022-12-07T04:20:09;23.10;;;11.20;;
76861;SDS011;65832;42.802;23.338;2022-12-07T04:22:35;24.50;;;13.05;;
76861;SDS011;65832;42.802;23.338;2022-12-07T04:25:00;21.65;;;11.25;;
76861;SDS011;65832;42.802;23.338;2022-12-07T04:27:26;20.73;;;10.68;;
76861;SDS011;65832;42.802;23.338;2022-12-07T04:29:51;21.58;;;11.68;;
76861;SDS011;65832;42.802;23.338;2022-12-07T04:32:17;21.48;;;11.25;;
76861;SDS011;65832;42.802;23.338;2022-12-07T04:34:42;24.00;;;11.23;;
76861;SDS011;65832;42.802;23.338;2022-12-07T04:37:07;21.42;;;10.60;;
76861;SDS011;65832;42.802;23.338;2022-12-07T04:39:33;20.17;;;9.85;;
76861;SDS011;65832;42.802;23.338;2022-12-07T04:41:59;17.73;;;9.60;;
76861;SDS011;65832;42.802;23.338;2022-12-07T04:44:25;19.30;;;9.55;;
76861;SDS011;65832;42.802;23.338;2022-12-07T04:46:53;27.85;;;13.52;;
76861;SDS011;65832;42.802;23.338;2022-12-07T04:49:19;21.38;;;10.75;;
76861;SDS011;65832;42.802;23.338;2022-12-07T04:51:45;22.70;;;11.70;;
76861;SDS011;65832;42.802;23.338;2022-12-07T04:54:11;24.95;;;12.35;;
76861;SDS011;65832;42.802;23.338;2022-12-07T04:56:37;27.10;;;11.80;;
76861;SDS011;65832;42.802;23.338;2022-12-07T04:59:03;25.58;;;12.05;;
76861;SDS011;65832;42.802;23.338;2022-12-07T05:01:29;23.33;;;11.30;;
76861;SDS011;65832;42.802;23.338;2022-12-07T05:03:54;22.23;;;10.75;;
76861;SDS011;65832;42.802;23.338;2022-12-07T05:06:20;21.77;;;9.95;;
76861;SDS011;65832;42.802;23.338;2022-12-07T05:08:45;22.00;;;11.00;;
76861;SDS011;65832;42.802;23.338;2022-12-07T05:11:11;24.35;;;11.23;;
76861;SDS011;65832;42.802;23.338;2022-12-07T05:14:00;20.98;;;11.02;;
76861;SDS011;65832;42.802;23.338;2022-12-07T05:16:26;24.25;;;11.93;;
76861;SDS011;65832;42.802;23.338;2022-12-07T05:18:52;30.77;;;13.77;;
76861;SDS011;65832;42.802;23.338;2022-12-07T05:21:17;31.40;;;15.05;;
76861;SDS011;65832;42.802;23.338;2022-12-07T05:23:43;31.48;;;15.13;;
76861;SDS011;65832;42.802;23.338;2022-12-07T05:26:09;32.40;;;15.55;;
76861;SDS011;65832;42.802;23.338;2022-12-07T05:28:34;38.47;;;19.63;;
76861;SDS011;65832;42.802;23.338;2022-12-07T05:31:00;36.30;;;17.38;;
76861;SDS011;65832;42.802;23.338;2022-12-07T05:33:25;25.95;;;13.60;;
76861;SDS011;65832;42.802;23.338;2022-12-07T05:35:51;29.30;;;12.55;;
76861;SDS011;65832;42.802;23.338;2022-12-07T05:38:16;29.85;;;14.05;;
76861;SDS011;65832;42.802;23.338;2022-12-07T05:40:42;30.98;;;15.05;;
76861;SDS011;65832;42.802;23.338;2022-12-07T05:43:07;33.72;;;17.48;;
76861;SDS011;65832;42.802;23.338;2022-12-07T05:45:33;27.95;;;15.82;;
76861;SDS011;65832;42.802;23.338;2022-12-07T05:47:58;29.40;;;15.32;;
76861;SDS011;65832;42.802;23.338;2022-12-07T05:50:24;28.40;;;14.80;;
76861;SDS011;65832;42.802;23.338;2022-12-07T05:52:49;23.60;;;13.85;;
76861;SDS011;65832;42.802;23.338;2022-12-07T05:55:15;22.65;;;11.85;;
76861;SDS011;65832;42.802;23.338;2022-12-07T05:57:40;26.15;;;14.02;;
76861;SDS011;65832;42.802;23.338;2022-12-07T06:00:25;37.72;;;17.30;;
76861;SDS011;65832;42.802;23.338;2022-12-07T06:02:51;44.28;;;21.85;;
76861;SDS011;65832;42.802;23.338;2022-12-07T06:05:16;47.05;;;22.42;;
76861;SDS011;65832;42.802;23.338;2022-12-07T06:07:42;37.28;;;18.85;;
76861;SDS011;65832;42.802;23.338;2022-12-07T06:10:07;39.05;;;19.83;;
76861;SDS011;65832;42.802;23.338;2022-12-07T06:12:33;44.75;;;23.98;;
76861;SDS011;65832;42.802;23.338;2022-12-07T06:14:58;42.00;;;20.83;;
76861;SDS011;65832;42.802;23.338;2022-12-07T06:17:24;60.65;;;27.55;;
76861;SDS011;65832;42.802;23.338;2022-12-07T06:19:50;50.08;;;22.88;;
76861;SDS011;65832;42.802;23.338;2022-12-07T06:22:15;52.05;;;21.75;;
76861;SDS011;65832;42.802;23.338;2022-12-07T06:24:41;40.90;;;17.92;;
76861;SDS011;65832;42.802;23.338;2022-12-07T06:27:07;33.30;;;16.52;;
76861;SDS011;65832;42.802;23.338;2022-12-07T06:29:33;27.45;;;13.15;;
76861;SDS011;65832;42.802;23.338;2022-12-07T06:31:58;23.77;;;11.20;;
76861;SDS011;65832;42.802;23.338;2022-12-07T06:34:24;31.60;;;14.35;;
76861;SDS011;65832;42.802;23.338;2022-12-07T06:36:50;24.92;;;12.77;;
76861;SDS011;65832;42.802;23.338;2022-12-07T06:39:17;28.73;;;13.68;;
76861;SDS011;65832;42.802;23.338;2022-12-07T06:41:46;32.33;;;12.77;;
76861;SDS011;65832;42.802;23.338;2022-12-07T06:44:12;36.92;;;14.32;;
76861;SDS011;65832;42.802;23.338;2022-12-07T06:46:37;28.02;;;14.27;;
76861;SDS011;65832;42.802;23.338;2022-12-07T06:49:03;28.17;;;12.55;;
76861;SDS011;65832;42.802;23.338;2022-12-07T06:51:30;31.88;;;15.00;;
76861;SDS011;65832;42.802;23.338;2022-12-07T06:53:56;29.50;;;14.23;;
76861;SDS011;65832;42.802;23.338;2022-12-07T06:56:21;32.53;;;16.27;;
76861;SDS011;65832;42.802;23.338;2022-12-07T06:58:48;25.35;;;12.32;;
76861;SDS011;65832;42.802;23.338;2022-12-07T07:01:14;33.15;;;13.95;;
76861;SDS011;65832;42.802;23.338;2022-12-07T07:03:41;34.67;;;16.25;;
76861;SDS011;65832;42.802;23.338;2022-12-07T07:06:07;35.80;;;14.75;;
76861;SDS011;65832;42.802;23.338;2022-12-07T07:08:34;55.88;;;22.58;;
76861;SDS011;65832;42.802;23.338;2022-12-07T07:11:00;59.50;;;22.83;;
76861;SDS011;65832;42.802;23.338;2022-12-07T07:13:26;61.60;;;23.10;;
76861;SDS011;65832;42.802;23.338;2022-12-07T07:15:52;60.28;;;23.95;;
76861;SDS011;65832;42.802;23.338;2022-12-07T07:18:17;62.38;;;24.40;;
76861;SDS011;65832;42.802;23.338;2022-12-07T07:20:43;45.60;;;21.30;;
76861;SDS011;65832;42.802;23.338;2022-12-07T07:23:08;52.15;;;28.00;;
76861;SDS011;65832;42.802;23.338;2022-12-07T07:25:34;76.93;;;42.38;;
76861;SDS011;65832;42.802;23.338;2022-12-07T07:28:00;80.32;;;43.97;;
76861;SDS011;65832;42.802;23.338;2022-12-07T07:30:26;61.33;;;31.70;;
76861;SDS011;65832;42.802;23.338;2022-12-07T07:32:55;44.42;;;24.50;;
76861;SDS011;65832;42.802;23.338;2022-12-07T07:35:24;40.50;;;21.20;;
76861;SDS011;65832;42.802;23.338;2022-12-07T07:37:50;48.42;;;23.42;;
76861;SDS011;65832;42.802;23.338;2022-12-07T07:40:16;48.13;;;24.00;;
76861;SDS011;65832;42.802;23.338;2022-12-07T07:42:41;60.03;;;30.80;;
76861;SDS011;65832;42.802;23.338;2022-12-07T07:45:07;53.08;;;27.17;;
76861;SDS011;65832;42.802;23.338;2022-12-07T07:47:33;46.13;;;25.52;;
76861;SDS011;65832;42.802;23.338;2022-12-07T07:49:58;48.33;;;23.88;;
76861;SDS011;65832;42.802;23.338;2022-12-07T07:52:24;50.78;;;27.17;;
76861;SDS011;65832;42.802;23.338;2022-12-07T07:54:50;64.65;;;28.55;;
76861;SDS011;65832;42.802;23.338;2022-12-07T07:57:16;52.20;;;28.08;;
76861;SDS011;65832;42.802;23.338;2022-12-07T07:59:42;46.83;;;26.80;;
76861;SDS011;65832;42.802;23.338;2022-12-07T08:02:17;62.03;;;31.80;;
76861;SDS011;65832;42.802;23.338;2022-12-07T08:04:44;59.65;;;31.52;;
76861;SDS011;65832;42.802;23.338;2022-12-07T08:07:10;49.67;;;26.63;;
76861;SDS011;65832;42.802;23.338;2022-12-07T08:09:36;51.60;;;27.33;;
76861;SDS011;65832;42.802;23.338;2022-12-07T08:12:02;53.42;;;26.25;;
76861;SDS011;65832;42.802;23.338;2022-12-07T08:14:28;55.88;;;25.13;;
76861;SDS011;65832;42.802;23.338;2022-12-07T08:16:53;32.42;;;14.70;;
76861;SDS011;65832;42.802;23.338;2022-12-07T08:19:19;46.63;;;16.98;;
76861;SDS011;65832;42.802;23.338;2022-12-07T08:21:44;36.15;;;16.23;;
76861;SDS011;65832;42.802;23.338;2022-12-07T08:24:10;39.88;;;16.95;;
76861;SDS011;65832;42.802;23.338;2022-12-07T08:26:35;31.67;;;14.07;;
76861;SDS011;65832;42.802;23.338;2022-12-07T08:29:01;31.80;;;14.65;;
76861;SDS011;65832;42.802;23.338;2022-12-07T08:31:26;31.33;;;13.63;;
76861;SDS011;65832;42.802;23.338;2022-12-07T08:33:53;29.65;;;13.55;;
76861;SDS011;65832;42.802;23.338;2022-12-07T08:36:18;39.60;;;16.42;;
76861;SDS011;65832;42.802;23.338;2022-12-07T08:38:44;54.75;;;19.35;;
76861;SDS011;65832;42.802;23.338;2022-12-07T08:41:10;41.80;;;19.58;;
76861;SDS011;65832;42.802;23.338;2022-12-07T08:43:35;45.95;;;21.05;;
76861;SDS011;65832;42.802;23.338;2022-12-07T08:48:46;36.20;;;16.90;;
76861;SDS011;65832;42.802;23.338;2022-12-07T08:51:22;33.35;;;15.35;;
76861;SDS011;65832;42.802;23.338;2022-12-07T08:53:48;27.65;;;12.68;;
76861;SDS011;65832;42.802;23.338;2022-12-07T08:56:15;30.38;;;14.52;;
76861;SDS011;65832;42.802;23.338;2022-12-07T08:58:41;28.27;;;13.63;;
76861;SDS011;65832;42.802;23.338;2022-12-07T09:01:07;28.77;;;13.23;;
76861;SDS011;65832;42.802;23.338;2022-12-07T09:03:32;33.60;;;13.18;;
76861;SDS011;65832;42.802;23.338;2022-12-07T09:05:58;31.00;;;13.95;;
76861;SDS011;65832;42.802;23.338;2022-12-07T09:08:26;28.25;;;14.05;;
76861;SDS011;65832;42.802;23.338;2022-12-07T09:10:54;28.15;;;13.15;;
76861;SDS011;65832;42.802;23.338;2022-12-07T09:13:20;30.20;;;14.38;;
76861;SDS011;65832;42.802;23.338;2022-12-07T09:15:45;28.98;;;13.57;;
76861;SDS011;65832;42.802;23.338;2022-12-07T09:18:11;32.88;;;13.88;;
76861;SDS011;65832;42.802;23.338;2022-12-07T09:20:36;31.17;;;13.73;;
76861;SDS011;65832;42.802;23.338;2022-12-07T09:23:01;32.75;;;14.02;;
76861;SDS011;65832;42.802;23.338;2022-12-07T09:25:27;31.00;;;14.60;;
76861;SDS011;65832;42.802;23.338;2022-12-07T09:27:56;31.95;;;14.75;;
76861;SDS011;65832;42.802;23.338;2022-12-07T09:30:22;33.35;;;15.18;;
76861;SDS011;65832;42.802;23.338;2022-12-07T09:32:48;30.58;;;13.95;;
76861;SDS011;65832;42.802;23.338;2022-12-07T09:35:13;31.92;;;14.23;;
76861;SDS011;65832;42.802;23.338;2022-12-07T09:37:38;29.10;;;13.70;;
76861;SDS011;65832;42.802;23.338;2022-12-07T09:40:04;27.75;;;13.98;;
76861;SDS011;65832;42.802;23.338;2022-12-07T09:42:37;30.02;;;14.85;;
76861;SDS011;65832;42.802;23.338;2022-12-07T09:45:05;33.53;;;14.95;;
76861;SDS011;65832;42.802;23.338;2022-12-07T09:47:32;33.00;;;15.68;;
76861;SDS011;65832;42.802;23.338;2022-12-07T09:50:06;35.55;;;14.10;;
76861;SDS011;65832;42.802;23.338;2022-12-07T09:52:37;32.50;;;13.75;;
76861;SDS011;65832;42.802;23.338;2022-12-07T09:55:03;31.80;;;14.10;;
76861;SDS011;65832;42.802;23.338;2022-12-07T09:57:34;27.42;;;12.50;;
76861;SDS011;65832;42.802;23.338;2022-12-07T10:00:03;29.20;;;13.40;;
76861;SDS011;65832;42.802;23.338;2022-12-07T10:02:39;29.10;;;12.85;;
76861;SDS011;65832;42.802;23.338;2022-12-07T10:05:09;33.97;;;14.18;;
76861;SDS011;65832;42.802;23.338;2022-12-07T10:07:38;27.45;;;13.23;;
76861;SDS011;65832;42.802;23.338;2022-12-07T10:10:04;27.80;;;13.48;;
76861;SDS011;65832;42.802;23.338;2022-12-07T10:12:52;28.30;;;13.68;;
76861;SDS011;65832;42.802;23.338;2022-12-07T10:15:19;24.77;;;12.02;;
76861;SDS011;65832;42.802;23.338;2022-12-07T10:17:48;28.63;;;14.05;;
76861;SDS011;65832;42.802;23.338;2022-12-07T10:20:23;28.38;;;11.85;;
76861;SDS011;65832;42.802;23.338;2022-12-07T10:25:24;28.85;;;14.35;;
76861;SDS011;65832;42.802;23.338;2022-12-07T10:35:55;26.77;;;13.60;;
76861;SDS011;65832;42.802;23.338;2022-12-07T10:38:21;28.88;;;13.73;;
76861;SDS011;65832;42.802;23.338;2022-12-07T10:40:46;28.33;;;12.55;;
76861;SDS011;65832;42.802;23.338;2022-12-07T10:48:27;26.10;;;12.13;;
76861;SDS011;65832;42.802;23.338;2022-12-07T11:04:37;27.70;;;12.50;;
76861;SDS011;65832;42.802;23.338;2022-12-07T11:07:10;25.73;;;11.60;;
76861;SDS011;65832;42.802;23.338;2022-12-07T11:18:11;22.80;;;11.27;;
76861;SDS011;65832;42.802;23.338;2022-12-07T11:20:53;28.55;;;13.40;;
76861;SDS011;65832;42.802;23.338;2022-12-07T11:26:10;28.90;;;11.48;;
76861;SDS011;65832;42.802;23.338;2022-12-07T11:34:20;23.25;;;11.73;;
76861;SDS011;65832;42.802;23.338;2022-12-07T11:36:58;39.50;;;19.63;;
76861;SDS011;65832;42.802;23.338;2022-12-07T11:39:36;22.45;;;11.15;;
76861;SDS011;65832;42.802;23.338;2022-12-07T11:42:14;29.75;;;13.65;;
76861;SDS011;65832;42.802;23.338;2022-12-07T12:00:49;24.58;;;9.98;;
76861;SDS011;65832;42.802;23.338;2022-12-07T12:03:20;23.40;;;11.15;;
76861;SDS011;65832;42.802;23.338;2022-12-07T12:05:55;26.23;;;10.85;;
76861;SDS011;65832;42.802;23.338;2022-12-07T12:08:23;20.50;;;10.73;;
76861;SDS011;65832;42.802;23.338;2022-12-07T12:18:43;26.17;;;11.18;;
76861;SDS011;65832;42.802;23.338;2022-12-07T12:21:16;25.15;;;11.00;;
76861;SDS011;65832;42.802;23.338;2022-12-07T12:23:51;25.90;;;11.52;;
76861;SDS011;65832;42.802;23.338;2022-12-07T12:26:35;23.23;;;10.65;;
76861;SDS011;65832;42.802;23.338;2022-12-07T12:29:03;26.65;;;12.77;;
76861;SDS011;65832;42.802;23.338;2022-12-07T12:31:33;24.90;;;11.63;;
76861;SDS011;65832;42.802;23.338;2022-12-07T12:34:28;21.20;;;10.30;;
76861;SDS011;65832;42.802;23.338;2022-12-07T12:40:23;23.17;;;10.27;;
76861;SDS011;65832;42.802;23.338;2022-12-07T12:42:56;18.83;;;9.95;;
76861;SDS011;65832;42.802;23.338;2022-12-07T12:50:22;20.58;;;10.07;;
76861;SDS011;65832;42.802;23.338;2022-12-07T12:52:50;24.27;;;10.82;;
76861;SDS011;65832;42.802;23.338;2022-12-07T12:55:17;19.15;;;10.15;;
76861;SDS011;65832;42.802;23.338;2022-12-07T12:57:45;28.95;;;12.15;;
76861;SDS011;65832;42.802;23.338;2022-12-07T13:18:01;31.08;;;15.07;;
76861;SDS011;65832;42.802;23.338;2022-12-07T13:26:34;23.23;;;12.15;;
76861;SDS011;65832;42.802;23.338;2022-12-07T13:34:33;22.27;;;11.77;;
76861;SDS011;65832;42.802;23.338;2022-12-07T13:37:00;27.02;;;14.00;;
76861;SDS011;65832;42.802;23.338;2022-12-07T13:39:32;28.70;;;13.85;;
76861;SDS011;65832;42.802;23.338;2022-12-07T13:41:59;23.65;;;13.10;;
76861;SDS011;65832;42.802;23.338;2022-12-07T13:44:38;20.27;;;10.98;;
76861;SDS011;65832;42.802;23.338;2022-12-07T13:47:13;26.42;;;11.65;;
76861;SDS011;65832;42.802;23.338;2022-12-07T13:49:48;24.45;;;10.88;;
76861;SDS011;65832;42.802;23.338;2022-12-07T13:52:28;28.52;;;12.50;;
76861;SDS011;65832;42.802;23.338;2022-12-07T13:54:59;20.13;;;10.93;;
76861;SDS011;65832;42.802;23.338;2022-12-07T13:57:27;18.77;;;10.70;;
76861;SDS011;65832;42.802;23.338;2022-12-07T13:59:55;29.17;;;14.60;;
76861;SDS011;65832;42.802;23.338;2022-12-07T14:02:28;25.50;;;14.20;;
76861;SDS011;65832;42.802;23.338;2022-12-07T14:13:58;29.13;;;11.55;;
76861;SDS011;65832;42.802;23.338;2022-12-07T14:18:56;20.98;;;10.75;;
76861;SDS011;65832;42.802;23.338;2022-12-07T14:21:24;28.75;;;13.43;;
76861;SDS011;65832;42.802;23.338;2022-12-07T14:26:35;20.30;;;11.20;;
76861;SDS011;65832;42.802;23.338;2022-12-07T14:32:18;45.58;;;22.10;;
76861;SDS011;65832;42.802;23.338;2022-12-07T14:34:55;46.22;;;18.80;;
76861;SDS011;65832;42.802;23.338;2022-12-07T14:37:21;30.90;;;16.65;;
76861;SDS011;65832;42.802;23.338;2022-12-07T14:39:47;31.60;;;15.45;;
76861;SDS011;65832;42.802;23.338;2022-12-07T14:42:12;48.03;;;21.33;;
76861;SDS011;65832;42.802;23.338;2022-12-07T14:44:37;44.42;;;20.08;;
76861;SDS011;65832;42.802;23.338;2022-12-07T14:47:03;34.88;;;16.55;;
76861;SDS011;65832;42.802;23.338;2022-12-07T14:49:28;39.60;;;17.98;;
76861;SDS011;65832;42.802;23.338;2022-12-07T14:51:54;32.80;;;15.40;;
76861;SDS011;65832;42.802;23.338;2022-12-07T14:54:20;39.88;;;18.58;;
76861;SDS011;65832;42.802;23.338;2022-12-07T14:56:50;43.20;;;18.50;;
76861;SDS011;65832;42.802;23.338;2022-12-07T14:59:16;91.07;;;40.40;;
76861;SDS011;65832;42.802;23.338;2022-12-07T15:01:42;47.92;;;19.27;;
76861;SDS011;65832;42.802;23.338;2022-12-07T15:04:08;34.50;;;16.08;;
76861;SDS011;65832;42.802;23.338;2022-12-07T15:06:33;37.08;;;17.95;;
76861;SDS011;65832;42.802;23.338;2022-12-07T15:08:59;36.10;;;17.17;;
76861;SDS011;65832;42.802;23.338;2022-12-07T15:11:25;43.17;;;21.55;;
76861;SDS011;65832;42.802;23.338;2022-12-07T15:13:50;39.28;;;18.15;;
76861;SDS011;65832;42.802;23.338;2022-12-07T15:16:42;36.90;;;15.70;;
76861;SDS011;65832;42.802;23.338;2022-12-07T15:19:12;36.55;;;18.50;;
76861;SDS011;65832;42.802;23.338;2022-12-07T15:21:50;111.28;;;48.83;;
76861;SDS011;65832;42.802;23.338;2022-12-07T15:24:16;294.48;;;116.30;;
76861;SDS011;65832;42.802;23.338;2022-12-07T15:26:41;210.82;;;82.68;;
76861;SDS011;65832;42.802;23.338;2022-12-07T15:29:07;138.18;;;56.78;;
76861;SDS011;65832;42.802;23.338;2022-12-07T15:31:33;53.42;;;26.10;;
76861;SDS011;65832;42.802;23.338;2022-12-07T15:33:59;78.80;;;35.22;;
76861;SDS011;65832;42.802;23.338;2022-12-07T15:36:26;73.63;;;33.60;;
76861;SDS011;65832;42.802;23.338;2022-12-07T15:38:53;66.57;;;30.33;;
76861;SDS011;65832;42.802;23.338;2022-12-07T15:41:19;75.20;;;30.85;;
76861;SDS011;65832;42.802;23.338;2022-12-07T15:43:45;65.13;;;30.58;;
76861;SDS011;65832;42.802;23.338;2022-12-07T15:46:33;142.38;;;59.13;;
76861;SDS011;65832;42.802;23.338;2022-12-07T15:49:01;159.80;;;68.15;;
76861;SDS011;65832;42.802;23.338;2022-12-07T15:51:27;105.50;;;47.33;;
76861;SDS011;65832;42.802;23.338;2022-12-07T15:53:53;115.85;;;51.72;;
76861;SDS011;65832;42.802;23.338;2022-12-07T15:56:19;121.38;;;50.35;;
76861;SDS011;65832;42.802;23.338;2022-12-07T15:58:44;128.02;;;57.55;;
76861;SDS011;65832;42.802;23.338;2022-12-07T16:01:13;106.15;;;49.50;;
76861;SDS011;65832;42.802;23.338;2022-12-07T16:03:40;92.25;;;42.97;;
76861;SDS011;65832;42.802;23.338;2022-12-07T16:06:06;120.00;;;49.15;;
76861;SDS011;65832;42.802;23.338;2022-12-07T16:08:32;129.10;;;58.92;;
76861;SDS011;65832;42.802;23.338;2022-12-07T16:10:57;95.30;;;45.15;;
76861;SDS011;65832;42.802;23.338;2022-12-07T16:13:22;75.88;;;35.72;;
76861;SDS011;65832;42.802;23.338;2022-12-07T16:15:48;227.75;;;95.05;;
76861;SDS011;65832;42.802;23.338;2022-12-07T16:18:13;114.05;;;50.88;;
76861;SDS011;65832;42.802;23.338;2022-12-07T16:20:39;38.75;;;17.90;;
76861;SDS011;65832;42.802;23.338;2022-12-07T16:23:05;107.93;;;42.92;;
76861;SDS011;65832;42.802;23.338;2022-12-07T16:25:30;57.40;;;28.17;;
76861;SDS011;65832;42.802;23.338;2022-12-07T16:27:56;111.40;;;47.85;;
76861;SDS011;65832;42.802;23.338;2022-12-07T16:30:21;141.00;;;57.92;;
76861;SDS011;65832;42.802;23.338;2022-12-07T16:32:47;179.07;;;80.22;;
76861;SDS011;65832;42.802;23.338;2022-12-07T16:35:12;156.15;;;60.22;;
76861;SDS011;65832;42.802;23.338;2022-12-07T16:37:38;141.57;;;53.25;;
76861;SDS011;65832;42.802;23.338;2022-12-07T16:40:04;97.53;;;36.85;;
76861;SDS011;65832;42.802;23.338;2022-12-07T16:42:33;68.05;;;27.02;;
76861;SDS011;65832;42.802;23.338;2022-12-07T16:44:59;61.38;;;27.67;;
76861;SDS011;65832;42.802;23.338;2022-12-07T16:47:25;253.43;;;96.13;;
76861;SDS011;65832;42.802;23.338;2022-12-07T16:49:51;200.00;;;74.20;;
76861;SDS011;65832;42.802;23.338;2022-12-07T16:52:17;240.55;;;79.45;;
76861;SDS011;65832;42.802;23.338;2022-12-07T16:54:43;220.52;;;72.43;;
76861;SDS011;65832;42.802;23.338;2022-12-07T16:57:09;92.38;;;36.00;;
76861;SDS011;65832;42.802;23.338;2022-12-07T16:59:34;91.25;;;34.60;;
76861;SDS011;65832;42.802;23.338;2022-12-07T17:02:00;44.65;;;18.70;;
76861;SDS011;65832;42.802;23.338;2022-12-07T17:04:25;55.15;;;22.27;;
76861;SDS011;65832;42.802;23.338;2022-12-07T17:06:51;81.00;;;37.50;;